createdAt,value
2018-12-17T00:04:19.448Z,78.60
2018-12-17T00:09:20.130Z,78.60
2018-12-17T00:14:18.859Z,78.70
2018-12-17T00:19:17.642Z,78.70
2018-12-17T00:24:16.392Z,78.80
2018-12-17T00:29:15.141Z,78.60
2018-12-17T00:34:13.922Z,79.20
2018-12-17T00:39:12.669Z,78.80
2018-12-17T00:44:11.437Z,78.80
2018-12-17T00:49:10.220Z,78.80
2018-12-17T00:54:08.942Z,78.80
2018-12-17T00:59:07.725Z,79.70
2018-12-17T01:04:06.586Z,79.40
2018-12-17T01:09:06.579Z,78.90
2018-12-17T01:14:07.264Z,78.90
2018-12-17T01:19:06.062Z,78.80
2018-12-17T01:24:04.879Z,78.80
2018-12-17T01:29:03.683Z,78.80
2018-12-17T01:34:02.492Z,78.80
2018-12-17T01:39:01.268Z,78.80
2018-12-17T01:44:02.068Z,78.70
2018-12-17T01:49:00.945Z,78.80
2018-12-17T01:53:59.750Z,78.60
2018-12-17T01:58:58.470Z,78.80
2018-12-17T02:03:57.198Z,78.80
2018-12-17T02:08:56.014Z,78.70
2018-12-17T02:13:54.830Z,78.70
2018-12-17T02:18:53.659Z,78.60
2018-12-17T02:23:53.125Z,78.70
2018-12-17T02:28:51.870Z,78.80
2018-12-17T02:33:50.642Z,78.80
2018-12-17T02:38:49.363Z,78.60
2018-12-17T02:43:48.490Z,78.60
2018-12-17T02:48:47.281Z,78.90
2018-12-17T02:53:46.044Z,78.90
2018-12-17T02:58:44.783Z,79.00
2018-12-17T03:03:43.592Z,79.10
2018-12-17T03:08:42.399Z,78.90
2018-12-17T03:13:41.199Z,78.70
2018-12-17T03:18:39.926Z,78.80
2018-12-17T03:23:38.727Z,78.80
2018-12-17T03:28:37.455Z,78.90
2018-12-17T03:33:36.195Z,78.90
2018-12-17T03:38:34.926Z,78.80
2018-12-17T03:43:33.692Z,78.80
2018-12-17T03:48:32.437Z,78.80
2018-12-17T03:53:31.261Z,78.80
2018-12-17T03:58:29.998Z,78.80
2018-12-17T04:03:28.741Z,78.90
2018-12-17T04:08:27.534Z,78.90
2018-12-17T04:13:26.278Z,78.80
2018-12-17T04:18:25.584Z,78.80
2018-12-17T04:23:24.302Z,79.00
2018-12-17T04:28:25.053Z,79.00
2018-12-17T04:33:23.795Z,79.00
2018-12-17T04:38:22.543Z,79.00
2018-12-17T04:43:21.274Z,78.90
2018-12-17T04:48:20.005Z,78.80
2018-12-17T04:53:19.152Z,78.90
2018-12-17T04:58:17.982Z,78.80
2018-12-17T05:03:16.742Z,78.80
2018-12-17T05:08:15.498Z,78.80
2018-12-17T05:13:14.265Z,78.80
2018-12-17T05:18:13.022Z,78.90
2018-12-17T05:23:11.844Z,78.80
2018-12-17T05:28:10.617Z,78.90
2018-12-17T05:33:09.578Z,78.90
2018-12-17T05:38:08.298Z,78.90
2018-12-17T05:43:07.160Z,78.80
2018-12-17T05:48:05.938Z,78.80
2018-12-17T05:53:04.885Z,78.90
2018-12-17T05:58:03.698Z,79.00
2018-12-17T06:03:02.520Z,78.90
2018-12-17T06:08:01.384Z,78.90
2018-12-17T06:13:00.135Z,78.80
2018-12-17T06:17:58.870Z,78.80
2018-12-17T06:22:57.624Z,79.00
2018-12-17T06:27:56.374Z,79.20
2018-12-17T06:32:55.150Z,78.90
2018-12-17T06:37:53.919Z,78.90
2018-12-17T06:42:52.678Z,78.90
2018-12-17T06:47:51.878Z,78.90
2018-12-17T06:52:50.626Z,78.80
2018-12-17T06:57:49.518Z,78.90
2018-12-17T07:02:48.246Z,79.00
2018-12-17T07:07:46.986Z,79.00
2018-12-17T07:12:45.738Z,79.00
2018-12-17T07:17:44.510Z,79.00
2018-12-17T07:22:43.326Z,79.10
2018-12-17T07:27:42.115Z,79.20
2018-12-17T07:32:40.954Z,79.20
2018-12-17T07:37:39.806Z,78.90
2018-12-17T07:42:38.570Z,79.40
2018-12-17T07:47:37.294Z,79.40
2018-12-17T07:52:36.036Z,79.50
2018-12-17T07:57:34.866Z,79.40
2018-12-17T08:02:33.663Z,79.50
2018-12-17T08:07:32.461Z,79.50
2018-12-17T08:12:31.274Z,79.50
2018-12-17T08:17:30.126Z,79.40
2018-12-17T08:22:29.203Z,79.60
2018-12-17T08:27:27.955Z,79.60
2018-12-17T08:32:26.850Z,79.60
2018-12-17T08:42:30.742Z,80.50
2018-12-17T08:47:29.470Z,79.70
2018-12-17T08:52:28.342Z,79.80
2018-12-17T08:57:27.146Z,79.80
2018-12-17T09:02:25.890Z,80.70
2018-12-17T09:07:24.701Z,79.80
2018-12-17T09:12:23.471Z,79.70
2018-12-17T09:17:22.328Z,79.80
2018-12-17T09:22:21.219Z,79.90
2018-12-17T09:27:20.014Z,79.90
2018-12-17T09:32:18.737Z,79.80
2018-12-17T09:37:17.542Z,79.90
2018-12-17T09:42:16.267Z,79.80
2018-12-17T09:47:15.047Z,79.80
2018-12-17T09:52:13.848Z,79.60
2018-12-17T09:57:12.734Z,80.00
2018-12-17T10:02:11.607Z,80.00
2018-12-17T10:07:10.390Z,80.00
2018-12-17T10:12:09.173Z,79.90
2018-12-17T10:17:08.004Z,79.70
2018-12-17T10:22:08.190Z,80.00
2018-12-17T10:27:07.189Z,80.00
2018-12-17T10:32:06.001Z,80.00
2018-12-17T10:37:04.795Z,80.00
2018-12-17T10:42:03.667Z,80.00
2018-12-17T10:47:04.462Z,80.10
2018-12-17T10:52:03.294Z,80.10
2018-12-17T10:57:02.138Z,80.10
2018-12-17T11:02:08.816Z,80.20
2018-12-17T11:07:07.670Z,80.20
2018-12-17T11:12:06.454Z,80.30
2018-12-17T11:17:05.354Z,80.40
2018-12-17T11:22:04.203Z,80.40
2018-12-17T11:27:02.938Z,80.60
2018-12-17T11:32:01.716Z,80.60
2018-12-17T11:37:00.595Z,80.70
2018-12-17T11:41:59.369Z,80.80
2018-12-17T11:46:58.189Z,80.70
2018-12-17T11:51:57.063Z,81.00
2018-12-17T11:59:12.209Z,81.10
2018-12-17T12:04:13.432Z,81.20
2018-12-17T12:09:14.366Z,81.40
2018-12-17T12:14:13.456Z,81.30
2018-12-17T12:19:12.224Z,81.30
2018-12-17T12:24:10.982Z,81.20
2018-12-17T12:29:09.719Z,81.10
2018-12-17T12:34:08.486Z,81.20
2018-12-17T12:39:07.373Z,81.10
2018-12-17T12:44:08.925Z,80.90
2018-12-17T12:49:07.823Z,80.80
2018-12-17T12:54:06.622Z,80.80
2018-12-17T12:59:05.465Z,80.70
2018-12-17T13:04:04.319Z,80.70
2018-12-17T13:09:04.094Z,80.80
2018-12-17T13:14:04.826Z,80.70
2018-12-17T13:19:04.670Z,80.80
2018-12-17T13:24:03.542Z,80.70
2018-12-17T13:29:02.318Z,80.70
2018-12-17T13:34:01.098Z,80.70
2018-12-17T13:38:59.842Z,80.60
2018-12-17T13:43:58.630Z,80.60
2018-12-17T13:48:57.465Z,80.70
2018-12-17T13:53:59.781Z,80.70
2018-12-17T13:58:58.570Z,80.60
2018-12-17T14:03:57.385Z,81.00
2018-12-17T14:08:56.181Z,81.00
2018-12-17T14:13:54.918Z,81.10
2018-12-17T14:18:59.114Z,81.00
2018-12-17T14:23:57.830Z,81.00
2018-12-17T14:28:57.598Z,80.90
2018-12-17T14:33:56.342Z,80.80
2018-12-17T14:38:55.182Z,80.70
2018-12-17T14:43:55.959Z,80.70
2018-12-17T14:48:54.688Z,80.80
2018-12-17T14:53:53.490Z,80.60
2018-12-17T14:58:52.314Z,80.60
2018-12-17T15:03:51.027Z,80.70
2018-12-17T15:08:49.803Z,80.60
2018-12-17T15:13:48.602Z,80.60
2018-12-17T15:18:47.402Z,80.70
2018-12-17T15:23:46.283Z,80.70
2018-12-17T15:28:45.123Z,80.80
2018-12-17T15:33:44.054Z,80.70
2018-12-17T15:38:42.838Z,80.80
2018-12-17T15:43:42.657Z,80.90
2018-12-17T15:48:41.470Z,80.90
2018-12-17T15:53:40.220Z,81.00
2018-12-17T15:58:39.011Z,81.00
2018-12-17T16:03:37.811Z,81.00
2018-12-17T16:08:36.597Z,81.00
2018-12-17T16:13:35.311Z,81.10
2018-12-17T16:18:34.153Z,81.00
2018-12-17T16:23:32.872Z,81.20
2018-12-17T16:28:31.605Z,81.20
2018-12-17T16:33:30.423Z,81.10
2018-12-17T16:38:29.223Z,81.00
2018-12-17T16:43:28.009Z,81.00
2018-12-17T16:48:26.735Z,81.10
2018-12-17T16:53:25.582Z,81.00
2018-12-17T16:58:24.363Z,81.10
2018-12-17T17:03:23.098Z,81.20
2018-12-17T17:08:22.949Z,81.20
2018-12-17T17:13:21.694Z,81.20
2018-12-17T17:18:20.518Z,81.10
2018-12-17T17:23:19.306Z,81.00
2018-12-17T17:28:18.030Z,81.00
2018-12-17T17:33:16.777Z,81.20
2018-12-17T17:38:15.502Z,81.20
2018-12-17T17:43:15.265Z,81.30
2018-12-17T17:48:14.148Z,81.30
2018-12-17T17:53:12.882Z,81.30
2018-12-17T17:58:11.624Z,81.30
2018-12-17T18:03:10.565Z,81.20
2018-12-17T18:08:09.378Z,81.30
2018-12-17T18:13:08.121Z,81.30
2018-12-17T18:18:06.908Z,81.20
2018-12-17T18:23:05.641Z,81.30
2018-12-17T18:28:04.458Z,81.30
2018-12-17T18:33:03.349Z,81.30
2018-12-17T18:38:02.147Z,81.40
2018-12-17T18:43:00.952Z,81.40
2018-12-17T18:47:59.786Z,81.40
2018-12-17T18:52:58.495Z,81.70
2018-12-17T18:57:57.258Z,81.70
2018-12-17T19:02:55.989Z,81.60
2018-12-17T19:07:54.797Z,81.70
2018-12-17T19:12:53.497Z,81.70
2018-12-17T19:17:53.140Z,81.70
2018-12-17T19:22:51.918Z,82.00
2018-12-17T19:27:50.702Z,81.70
2018-12-17T19:32:49.510Z,81.60
2018-12-17T19:37:48.282Z,81.70
2018-12-17T19:42:47.055Z,81.70
2018-12-17T19:47:45.826Z,81.70
2018-12-17T19:52:44.597Z,82.60
2018-12-17T19:57:43.422Z,81.70
2018-12-17T20:02:47.015Z,81.70
2018-12-17T20:07:42.942Z,81.80
2018-12-17T20:12:41.718Z,81.80
2018-12-17T20:17:41.515Z,81.90
2018-12-17T20:22:40.254Z,81.80
2018-12-17T20:27:39.047Z,81.90
2018-12-17T20:32:37.862Z,81.90
2018-12-17T20:37:36.787Z,81.90
2018-12-17T20:42:35.650Z,82.10
2018-12-17T20:47:34.491Z,82.10
2018-12-17T20:52:33.359Z,81.90
2018-12-17T20:57:32.152Z,82.30
2018-12-17T21:02:30.965Z,82.00
2018-12-17T21:07:29.760Z,81.90
2018-12-17T21:12:28.611Z,82.00
2018-12-17T21:17:27.406Z,81.90
2018-12-17T21:22:26.206Z,81.90
2018-12-17T21:27:24.954Z,82.00
2018-12-17T21:32:23.734Z,82.00
2018-12-17T21:37:22.499Z,82.00
2018-12-17T21:42:21.327Z,81.90
2018-12-17T21:47:21.186Z,81.90
2018-12-17T21:52:20.107Z,82.00
2018-12-17T21:57:18.967Z,82.00
2018-12-17T22:02:17.957Z,82.10
2018-12-17T22:07:17.201Z,82.00
2018-12-17T22:12:16.051Z,82.00
2018-12-17T22:17:14.797Z,82.10
2018-12-17T22:22:14.562Z,82.00
2018-12-17T22:27:13.346Z,82.10
2018-12-17T22:32:12.262Z,82.00
2018-12-17T22:37:11.118Z,82.00
2018-12-17T22:42:09.911Z,81.90
2018-12-17T22:47:08.762Z,81.90
2018-12-17T22:52:07.538Z,82.00
2018-12-17T22:57:06.394Z,82.00
2018-12-17T23:02:05.281Z,82.90
2018-12-17T23:07:04.184Z,82.10
2018-12-17T23:12:14.454Z,82.20
2018-12-17T23:17:24.657Z,82.50
2018-12-17T23:22:23.999Z,82.50
2018-12-17T23:27:24.766Z,82.60
2018-12-17T23:32:25.679Z,82.90
2018-12-17T23:37:24.423Z,82.90
2018-12-17T23:42:23.303Z,82.90
2018-12-17T23:47:22.124Z,83.10
2018-12-17T23:52:20.985Z,83.10
2018-12-17T23:57:19.831Z,83.10
